This is the latest recevied weather packets stored in our database for station/object K7CTM. If no packets are shown the sender has not sent any weather packets the latest 10 day(s).
| Time | Temp. | Humidity | Pressure | Rain* | Wind** | Luminosity | Snow |
|---|---|---|---|---|---|---|---|
| 1777474963 | 8.33° C | 61% | 1031 hPa | 0 mm | - | 195 W/m² | - |
| 1777474659 | 7.78° C | 64% | 1031.2 hPa | 0 mm | - | 337 W/m² | - |
| 1777474356 | 7.22° C | 65% | 1030.8 hPa | 0 mm | - | 313 W/m² | - |
| 1777474052 | 7.78° C | 62% | 1031 hPa | 0 mm | - | 331 W/m² | - |
| 1777473750 | 6.67° C | 67% | 1030.7 hPa | 0 mm | - | 352 W/m² | - |
| 1777473447 | 6.67° C | 67% | 1030.8 hPa | 0 mm | - | 324 W/m² | - |
| 1777473142 | 6.11° C | 70% | 1030.6 hPa | 0 mm | - | 303 W/m² | - |
| 1777472840 | 5.56° C | 69% | 1030.6 hPa | 0 mm | - | 285 W/m² | - |
| 1777472535 | 5.56° C | 69% | 1030.5 hPa | 0 mm | - | 268 W/m² | - |
| 1777472232 | 5.56° C | 71% | 1030.6 hPa | 0 mm | - | 251 W/m² | - |
| 1777471928 | 5° C | 71% | 1030.5 hPa | 0 mm | - | 227 W/m² | - |
| 1777471626 | 4.44° C | 74% | 1030.6 hPa | 0 mm | - | 223 W/m² | - |
| 1777471322 | 4.44° C | 74% | 1030.5 hPa | 0 mm | - | 211 W/m² | - |
| 1777471018 | 4.44° C | 74% | 1030.3 hPa | 0 mm | - | 195 W/m² | - |
| 1777470715 | 4.44° C | 74% | 1030.4 hPa | 0 mm | - | 153 W/m² | - |
| 1777470412 | 4.44° C | 75% | 1030.3 hPa | 0 mm | - | 138 W/m² | - |
| 1777470109 | 3.89° C | 75% | 1030.4 hPa | 0 mm | - | 129 W/m² | - |
| 1777469804 | 3.89° C | 75% | 1030.3 hPa | 0 mm | - | 133 W/m² | - |
| 1777469500 | 3.89° C | 76% | 1030.4 hPa | 0 mm | - | 128 W/m² | - |
| 1777469195 | 3.33° C | 78% | 1030.2 hPa | 0 mm | - | 119 W/m² | - |
| 1777468895 | 2.78° C | 79% | 1030 hPa | 0 mm | - | 106 W/m² | - |
| 1777468592 | 3.33° C | 78% | 1030.4 hPa | 0 mm | - | 92 W/m² | - |
| 1777468289 | 2.78° C | 78% | 1029.9 hPa | 0 mm | - | 78 W/m² | - |
| 1777467984 | 2.22° C | 79% | 1030.2 hPa | 0 mm | - | 69 W/m² | - |
| 1777467681 | 2.22° C | 78% | 1030 hPa | 0 mm | - | 61 W/m² | - |
* Rain latest hour (hover to see other rain measurements)
** Current wind speed in m/s (hover to see current wind gust speed)